Time;durP1;ratioP1;P1;durP2;ratioP2;P2;SDS_P1;SDS_P2;PMS_P1;PMS_P2;Temp;Humidity;BMP_temperature;BMP_pressure;BME280_temperature;BME280_humidity;BME280_pressure;Samples;Min_cycle;Max_cycle;Signal;HPM_P1;HPM_P2
2021/09/21 00:00:00;;;;;;;6.33;5.37;;;;;;;13.89;72.31;96216.09;5051502;28;20233;-87
2021/09/21 00:02:26;;;;;;;6.57;5.47;;;;;;;13.88;72.19;96216.28;5051288;28;20237;-87
2021/09/21 00:04:54;;;;;;;6.27;5.70;;;;;;;13.93;72.16;96214.75;5051238;28;20207;-86
2021/09/21 00:07:21;;;;;;;5.60;5.10;;;;;;;13.93;72.44;96219.94;5051861;28;20293;-86
2021/09/21 00:09:47;;;;;;;6.10;5.50;;;;;;;13.88;72.55;96216.28;5051978;28;20227;-86
2021/09/21 00:15:15;;;;;;;6.30;5.70;;;;;;;13.85;72.79;96214.06;5043250;28;20689;-86
2021/09/21 00:17:42;;;;;;;5.20;4.73;;;;;;;13.94;73.16;96215.56;5051750;28;20205;-86
2021/09/21 00:20:12;;;;;;;6.17;5.60;;;;;;;13.97;73.50;96216.00;5051505;28;20212;-87
2021/09/21 00:22:39;;;;;;;6.77;6.17;;;;;;;14.02;72.54;96211.09;5051151;28;20228;-87
2021/09/21 00:25:06;;;;;;;5.97;5.47;;;;;;;14.03;72.92;96211.88;5050773;28;20252;-88
2021/09/21 00:27:33;;;;;;;6.73;6.13;;;;;;;14.08;72.62;96217.31;5051104;28;20205;-86
2021/09/21 00:30:00;;;;;;;6.00;5.50;;;;;;;14.12;72.51;96214.16;5051144;28;20213;-89
2021/09/21 00:32:27;;;;;;;6.07;5.57;;;;;;;14.12;73.05;96206.41;5050808;28;20229;-86
2021/09/21 00:34:54;;;;;;;7.03;6.30;;;;;;;14.23;72.61;96209.50;5050782;28;20197;-87
2021/09/21 00:37:22;;;;;;;6.97;6.20;;;;;;;14.23;72.36;96207.72;5050786;28;20208;-86
2021/09/21 00:39:49;;;;;;;10.93;7.13;;;;;;;14.31;71.81;96206.78;5050651;28;20615;-86
2021/09/21 00:42:22;;;;;;;8.17;7.37;;;;;;;14.33;71.51;96205.63;5050628;28;20226;-89
2021/09/21 00:44:54;;;;;;;7.90;7.20;;;;;;;14.36;70.98;96207.84;5050442;28;20236;-87
2021/09/21 00:47:22;;;;;;;7.90;7.20;;;;;;;14.33;70.89;96215.97;5050801;28;20255;-87
2021/09/21 00:49:48;;;;;;;7.23;6.53;;;;;;;14.32;70.29;96206.59;5050613;28;20303;-87
2021/09/21 00:52:15;;;;;;;7.80;7.00;;;;;;;14.35;70.15;96202.84;5050473;28;20264;-87
2021/09/21 00:54:43;;;;;;;7.83;7.07;;;;;;;14.39;69.89;96207.47;5050719;28;20251;-89
2021/09/21 00:57:11;;;;;;;8.17;7.37;;;;;;;14.32;70.64;96216.16;5050943;28;20209;-90
2021/09/21 00:59:37;;;;;;;8.07;7.37;;;;;;;14.36;70.10;96217.41;5050392;28;20229;-87
2021/09/21 01:02:04;;;;;;;8.90;7.57;;;;;;;14.36;69.80;96207.84;5050633;28;20236;-89
2021/09/21 01:04:31;;;;;;;8.17;7.20;;;;;;;14.37;69.94;96209.47;5050290;28;20209;-87
2021/09/21 01:06:57;;;;;;;8.63;7.83;;;;;;;14.37;70.02;96212.03;5050156;28;20206;-88
2021/09/21 01:09:27;;;;;;;7.90;7.10;;;;;;;14.29;70.27;96211.34;5050444;28;20262;-86
2021/09/21 01:11:58;;;;;;;8.03;7.23;;;;;;;14.30;69.40;96211.16;5050190;28;20221;-88
2021/09/21 01:14:25;;;;;;;7.87;7.17;;;;;;;14.36;69.63;96214.81;5050024;28;20197;-87
2021/09/21 01:16:53;;;;;;;7.37;6.67;;;;;;;14.44;70.00;96228.47;5050138;28;20228;-86
2021/09/21 01:19:21;;;;;;;7.77;7.07;;;;;;;14.44;70.19;96215.50;5050109;28;20205;-86
2021/09/21 01:21:49;;;;;;;7.30;6.60;;;;;;;14.38;71.53;96212.84;5050194;28;20766;-87
2021/09/21 01:24:18;;;;;;;10.13;7.93;;;;;;;14.22;72.50;96211.28;5049977;28;20197;-87
2021/09/21 01:26:44;;;;;;;6.87;6.27;;;;;;;14.20;72.15;96202.91;5049950;28;20197;-88
2021/09/21 01:29:11;;;;;;;7.53;6.70;;;;;;;14.21;72.50;96207.09;5048998;28;20295;-87
2021/09/21 01:31:39;;;;;;;7.20;6.60;;;;;;;14.33;72.06;96212.59;5049778;28;20225;-87
2021/09/21 01:34:06;;;;;;;7.93;6.47;;;;;;;14.26;73.43;96225.47;5049936;28;20202;-87
2021/09/21 01:36:33;;;;;;;8.07;7.27;;;;;;;14.21;73.46;96222.63;5049617;28;20727;-87
2021/09/21 01:39:01;;;;;;;7.53;6.83;;;;;;;14.18;73.51;96225.59;5050287;28;20197;-87
2021/09/21 01:41:28;;;;;;;7.53;6.77;;;;;;;14.16;73.09;96215.41;5050097;28;20229;-87
2021/09/21 01:43:54;;;;;;;7.53;6.83;;;;;;;14.27;72.58;96216.72;5050124;28;20267;-87
2021/09/21 01:46:22;;;;;;;7.07;6.47;;;;;;;14.28;72.37;96220.09;5049787;28;20254;-88
2021/09/21 01:48:49;;;;;;;7.33;6.70;;;;;;;14.32;72.47;96227.34;5050242;28;20201;-88
2021/09/21 01:51:21;;;;;;;6.73;6.00;;;;;;;14.42;72.41;96237.44;5049845;28;20217;-86
2021/09/21 01:53:56;;;;;;;7.33;6.37;;;;;;;14.35;73.95;96242.50;5049689;28;20197;-88
2021/09/21 01:59:07;;;;;;;7.03;6.20;;;;;;;14.16;73.74;96238.72;5049188;28;20232;-87
2021/09/21 02:01:36;;;;;;;8.07;6.70;;;;;;;14.12;74.21;96240.06;5049685;28;20225;-88
2021/09/21 02:04:07;;;;;;;7.90;7.20;;;;;;;14.12;75.00;96237.47;5049597;28;20636;-87
2021/09/21 02:06:35;;;;;;;7.03;6.23;;;;;;;14.15;74.18;96242.28;5049541;28;20237;-88
2021/09/21 02:09:02;;;;;;;6.87;6.20;;;;;;;14.25;73.90;96238.59;5049736;28;20205;-86
2021/09/21 02:11:30;;;;;;;7.20;6.60;;;;;;;14.18;74.44;96239.34;5049496;28;20221;-87
2021/09/21 02:13:58;;;;;;;6.70;6.00;;;;;;;14.20;74.36;96241.75;5049546;28;20208;-91
2021/09/21 02:16:25;;;;;;;7.20;6.50;;;;;;;14.22;74.27;96249.34;5049704;28;20198;-87
2021/09/21 02:18:51;;;;;;;6.70;6.10;;;;;;;14.25;74.19;96247.16;5049689;28;20284;-87
2021/09/21 02:21:18;;;;;;;7.90;6.70;;;;;;;14.29;74.27;96245.03;5049524;28;20221;-90
2021/09/21 02:23:44;;;;;;;6.83;6.23;;;;;;;14.18;74.87;96244.53;5049590;28;20774;-87
2021/09/21 02:26:11;;;;;;;7.27;6.60;;;;;;;14.09;75.71;96247.38;5049412;28;20209;-87
2021/09/21 02:28:39;;;;;;;7.50;6.63;;;;;;;14.12;75.17;96250.44;5049677;28;20202;-86
2021/09/21 02:31:06;;;;;;;7.07;6.43;;;;;;;14.21;74.29;96253.72;5049566;28;20226;-87
2021/09/21 02:33:32;;;;;;;8.00;6.23;;;;;;;14.23;74.74;96248.38;5049921;28;20285;-88
2021/09/21 02:35:58;;;;;;;6.97;6.37;;;;;;;14.24;74.62;96257.75;5049400;28;20201;-87
2021/09/21 02:38:25;;;;;;;7.47;6.67;;;;;;;14.29;74.94;96253.59;5049180;28;20210;-86
2021/09/21 02:40:52;;;;;;;7.27;6.57;;;;;;;14.27;75.41;96254.75;5049439;28;20640;-86
2021/09/21 02:43:18;;;;;;;8.20;6.40;;;;;;;14.04;75.77;96249.75;5049251;28;20275;-88
2021/09/21 02:45:46;;;;;;;7.97;6.80;;;;;;;14.09;76.24;96252.56;5049101;28;20266;-87
2021/09/21 02:48:12;;;;;;;7.07;6.37;;;;;;;14.20;74.87;96257.28;5049194;28;20209;-88
2021/09/21 02:50:39;;;;;;;7.60;6.90;;;;;;;14.04;75.96;96247.97;5052484;28;20209;-87
2021/09/21 02:53:05;;;;;;;7.03;6.40;;;;;;;14.08;75.77;96259.53;5052793;28;20209;-87
2021/09/21 02:55:32;;;;;;;8.53;7.63;;;;;;;14.04;75.51;96266.09;5052723;28;20274;-87
2021/09/21 02:57:58;;;;;;;7.83;7.03;;;;;;;14.09;75.88;96270.69;5052234;28;20720;-87
2021/09/21 03:00:26;;;;;;;7.90;7.20;;;;;;;14.11;75.77;96279.09;5052848;28;20202;-88
2021/09/21 03:02:56;;;;;;;8.63;7.30;;;;;;;14.20;75.03;96275.44;5052662;28;20704;-89
2021/09/21 03:05:25;;;;;;;7.63;6.83;;;;;;;14.11;75.75;96276.50;5052602;28;20300;-88
2021/09/21 03:07:55;;;;;;;8.13;7.33;;;;;;;13.98;76.02;96264.22;5051611;28;20197;-87
2021/09/21 03:10:32;;;;;;;7.93;7.20;;;;;;;13.95;76.71;96263.75;5052712;28;20197;-87
2021/09/21 03:18:24;;;;;;;7.90;7.10;;;;;;;13.89;77.33;96269.66;5052609;28;20258;-87
2021/09/21 03:20:51;;;;;;;8.67;7.77;;;;;;;13.82;77.30;96272.19;5052296;28;20229;-87
2021/09/21 03:23:17;;;;;;;8.70;7.80;;;;;;;13.73;77.37;96276.63;5052356;28;20275;-87
2021/09/21 03:25:44;;;;;;;10.40;8.30;;;;;;;13.76;76.70;96283.22;5052073;28;20206;-87
2021/09/21 03:28:10;;;;;;;8.77;7.97;;;;;;;13.88;76.06;96284.38;5052088;28;20676;-86
2021/09/21 03:30:37;;;;;;;9.30;8.37;;;;;;;14.00;75.79;96282.16;5051927;28;20202;-87
2021/09/21 03:33:04;;;;;;;9.20;8.30;;;;;;;14.00;75.86;96282.16;5052341;28;20208;-87
2021/09/21 03:35:32;;;;;;;9.30;8.40;;;;;;;13.83;76.34;96286.72;5051991;28;20209;-86
2021/09/21 03:37:58;;;;;;;9.10;8.20;;;;;;;13.86;76.47;96282.94;5052071;28;20572;-87
2021/09/21 03:40:25;;;;;;;8.40;7.60;;;;;;;14.00;75.90;96293.31;5052090;28;20259;-87
2021/09/21 03:42:51;;;;;;;8.80;8.00;;;;;;;14.10;76.27;96291.22;5051935;28;20596;-89
2021/09/21 03:45:18;;;;;;;10.07;8.43;;;;;;;14.01;76.03;96283.75;5051673;28;20201;-86
2021/09/21 03:47:44;;;;;;;9.50;8.20;;;;;;;14.04;76.04;96284.22;5052247;28;20690;-87
2021/09/21 03:50:11;;;;;;;8.83;7.97;;;;;;;14.17;75.89;96286.16;5051991;28;20700;-86
2021/09/21 03:52:39;;;;;;;8.30;7.50;;;;;;;14.25;75.61;96293.00;5051952;28;20221;-89
2021/09/21 03:55:06;;;;;;;9.77;7.70;;;;;;;14.31;75.09;96294.88;5051605;28;20224;-86
2021/09/21 03:57:33;;;;;;;9.20;7.93;;;;;;;14.33;74.73;96291.09;5044719;28;20211;-90
2021/09/21 03:59:59;;;;;;;9.17;8.27;;;;;;;14.38;74.69;96286.19;5051269;28;20197;-87
2021/09/21 04:02:26;;;;;;;10.67;7.83;;;;;;;14.35;74.10;96288.34;5051613;28;20252;-86
2021/09/21 04:04:52;;;;;;;9.27;8.37;;;;;;;14.20;73.45;96290.97;5051326;28;20227;-88
2021/09/21 04:07:19;;;;;;;13.07;8.00;;;;;;;14.12;74.35;96294.44;5051382;28;20193;-87
2021/09/21 04:09:46;;;;;;;9.50;8.60;;;;;;;14.10;74.66;96287.84;5051511;28;20204;-87
2021/09/21 04:12:13;;;;;;;9.40;8.43;;;;;;;14.08;74.52;96287.22;5051124;28;20221;-87
2021/09/21 04:14:39;;;;;;;9.13;8.27;;;;;;;14.11;75.07;96294.63;5051279;28;20263;-88
2021/09/21 04:17:06;;;;;;;11.17;8.30;;;;;;;14.15;74.74;96293.28;5051473;28;20202;-86
2021/09/21 04:19:32;;;;;;;9.13;8.23;;;;;;;14.14;74.00;96289.91;5051322;28;20577;-87
2021/09/21 04:21:59;;;;;;;9.57;8.27;;;;;;;14.24;73.73;96284.41;5051040;28;20731;-87
2021/09/21 04:24:25;;;;;;;8.97;8.17;;;;;;;14.32;72.85;96288.69;5050835;28;20752;-87
2021/09/21 04:26:53;;;;;;;9.70;8.80;;;;;;;14.38;72.74;96290.56;5050893;28;20251;-86
2021/09/21 04:29:19;;;;;;;8.93;8.03;;;;;;;14.34;73.04;96289.31;5051262;28;20259;-86
2021/09/21 04:31:49;;;;;;;9.87;8.97;;;;;;;14.37;72.88;96294.16;5077092;23;20701;-86
2021/09/21 04:34:16;;;;;;;9.50;8.30;;;;;;;14.33;72.92;96304.06;5033098;28;20296;-86
2021/09/21 04:36:44;;;;;;;8.70;7.87;;;;;;;14.39;72.68;96313.72;5033467;28;20202;-87
2021/09/21 04:39:10;;;;;;;10.03;7.90;;;;;;;14.47;72.43;96312.81;5026904;28;20194;-87
2021/09/21 04:41:37;;;;;;;8.60;7.80;;;;;;;14.47;72.40;96315.41;5032969;28;20253;-87
2021/09/21 04:44:05;;;;;;;9.33;8.23;;;;;;;14.50;71.59;96317.63;5032499;28;20309;-87
2021/09/21 04:46:33;;;;;;;8.87;8.07;;;;;;;14.49;71.21;96321.22;5032834;28;20202;-87
2021/09/21 04:49:00;;;;;;;8.53;7.73;;;;;;;14.50;70.93;96328.81;5032760;28;20230;-86
2021/09/21 04:51:27;;;;;;;8.10;7.27;;;;;;;14.39;71.79;96326.66;5032127;28;20800;-86
2021/09/21 04:53:53;;;;;;;8.13;7.37;;;;;;;14.39;72.14;96333.63;5035547;28;20199;-87
2021/09/21 04:56:20;;;;;;;8.10;7.30;;;;;;;14.40;71.90;96336.06;5032126;28;20206;-86
2021/09/21 04:58:46;;;;;;;7.77;6.97;;;;;;;14.31;71.97;96336.31;5032564;28;20229;-85
2021/09/21 05:01:14;;;;;;;8.10;7.40;;;;;;;14.24;72.80;96333.63;5032536;28;20214;-86
2021/09/21 05:03:41;;;;;;;7.77;7.03;;;;;;;14.26;73.64;96342.03;5032682;28;20218;-87
2021/09/21 05:06:10;;;;;;;8.70;7.10;;;;;;;14.33;73.51;96335.16;5033138;28;20601;-88
2021/09/21 05:08:37;;;;;;;7.83;7.03;;;;;;;14.32;73.83;96340.50;5033060;28;20240;-87
2021/09/21 05:11:04;;;;;;;7.80;7.10;;;;;;;14.27;74.23;96356.59;5034220;28;20304;-88
2021/09/21 05:13:30;;;;;;;8.20;7.40;;;;;;;14.32;73.82;96363.81;5034239;28;20229;-88
2021/09/21 05:15:56;;;;;;;8.10;7.30;;;;;;;14.38;73.61;96355.34;5034743;28;20202;-88
2021/09/21 05:18:24;;;;;;;8.27;7.00;;;;;;;14.43;73.27;96359.00;5034429;28;20205;-87
2021/09/21 05:20:51;;;;;;;7.83;6.80;;;;;;;14.41;74.50;96355.81;5033925;28;20210;-87
2021/09/21 05:23:17;;;;;;;7.80;7.00;;;;;;;14.43;74.14;96360.81;5034016;28;20226;-88
2021/09/21 05:25:44;;;;;;;8.10;7.30;;;;;;;14.36;74.02;96354.72;5033385;28;20202;-87
2021/09/21 05:28:10;;;;;;;19.33;16.60;;;;;;;14.34;73.47;96367.84;5033637;28;20212;-87
2021/09/21 05:30:37;;;;;;;11.47;9.53;;;;;;;14.39;73.58;96375.09;5033868;28;20210;-88
2021/09/21 05:33:05;;;;;;;11.37;9.33;;;;;;;14.27;75.47;96381.69;5032968;28;20244;-88
2021/09/21 05:35:33;;;;;;;8.97;8.07;;;;;;;14.30;75.09;96392.50;5032712;28;20229;-88
2021/09/21 05:37:59;;;;;;;8.13;7.20;;;;;;;14.26;76.00;96390.44;5033021;28;20986;-88
2021/09/21 05:40:27;;;;;;;11.63;7.30;;;;;;;14.18;77.88;96397.34;5033374;28;20198;-87
2021/09/21 05:42:53;;;;;;;9.43;7.70;;;;;;;14.04;78.35;96402.53;5033426;28;20225;-88
2021/09/21 05:45:22;;;;;;;7.73;6.93;;;;;;;14.04;80.23;96405.91;5033959;28;20202;-86
2021/09/21 05:47:49;;;;;;;7.80;7.07;;;;;;;14.08;78.80;96404.56;5033507;28;20213;-88
2021/09/21 05:50:16;;;;;;;12.90;7.50;;;;;;;14.10;78.39;96404.38;5033741;28;20333;-88
2021/09/21 05:52:45;;;;;;;12.50;7.23;;;;;;;14.12;77.57;96413.59;5032963;28;20609;-86
2021/09/21 05:55:12;;;;;;;12.77;7.73;;;;;;;14.10;79.01;96417.31;5036665;28;20210;-88
2021/09/21 05:57:40;;;;;;;11.00;7.97;;;;;;;14.07;79.40;96415.09;5032839;28;20210;-88
2021/09/21 06:00:11;;;;;;;11.47;8.10;;;;;;;14.20;77.71;96412.69;5033872;28;20198;-88
2021/09/21 06:02:37;;;;;;;21.77;17.73;;;;;;;14.09;79.41;96426.88;5033934;28;20225;-88
2021/09/21 06:05:05;;;;;;;12.60;9.87;;;;;;;14.02;80.35;96431.19;5032452;28;20772;-88
2021/09/21 06:07:32;;;;;;;8.80;7.97;;;;;;;14.02;79.52;96432.97;5032699;28;20704;-88
2021/09/21 06:10:00;;;;;;;10.73;8.27;;;;;;;13.89;81.40;96446.50;5032958;28;20245;-88
2021/09/21 06:12:27;;;;;;;9.07;8.17;;;;;;;13.82;82.06;96450.78;5033351;28;20740;-88
2021/09/21 06:14:54;;;;;;;9.43;8.43;;;;;;;13.87;81.08;96453.63;5032725;28;20202;-88
2021/09/21 06:17:20;;;;;;;9.30;8.30;;;;;;;13.90;81.84;96455.88;5032621;28;20781;-88
2021/09/21 06:19:47;;;;;;;10.67;8.20;;;;;;;14.01;80.41;96455.47;5033096;28;20209;-87
2021/09/21 06:22:13;;;;;;;9.50;8.40;;;;;;;13.95;80.73;96453.56;5032676;28;20248;-87
2021/09/21 06:24:39;;;;;;;10.03;9.07;;;;;;;13.90;80.35;96458.47;5035871;28;20236;-88
2021/09/21 06:27:07;;;;;;;8.87;8.07;;;;;;;13.94;80.66;96454.53;5036935;28;20209;-86
2021/09/21 06:29:34;;;;;;;9.10;8.20;;;;;;;14.06;79.97;96465.28;5037135;28;20190;-88
2021/09/21 06:32:00;;;;;;;9.83;8.83;;;;;;;14.08;79.25;96469.28;5036800;28;20233;-88
2021/09/21 06:34:27;;;;;;;9.53;8.63;;;;;;;14.10;78.11;96464.75;5038770;28;20198;-88
2021/09/21 06:36:54;;;;;;;10.33;9.10;;;;;;;14.10;78.39;96469.94;5037228;28;20201;-88
2021/09/21 06:39:20;;;;;;;13.47;10.00;;;;;;;13.94;78.77;96458.91;5037136;28;20206;-88
2021/09/21 06:41:47;;;;;;;10.27;9.30;;;;;;;13.89;79.48;96467.22;5036285;28;20253;-88
2021/09/21 06:44:15;;;;;;;18.27;15.10;;;;;;;13.94;79.90;96471.88;5036147;28;20221;-88
2021/09/21 06:46:42;;;;;;;44.17;39.50;;;;;;;14.04;79.67;96472.44;5036012;28;20216;-87
2021/09/21 06:49:08;;;;;;;17.53;15.73;;;;;;;14.20;78.43;96472.28;5036564;28;20202;-88
2021/09/21 06:51:35;;;;;;;11.87;10.60;;;;;;;14.26;77.91;96476.72;5036133;28;20225;-86
2021/09/21 06:54:01;;;;;;;11.37;10.27;;;;;;;14.24;77.94;96470.91;5039291;28;20205;-86
2021/09/21 06:56:28;;;;;;;10.90;9.70;;;;;;;14.28;77.05;96481.75;5035642;28;20202;-87
2021/09/21 06:58:56;;;;;;;10.87;9.17;;;;;;;14.23;77.00;96481.50;5046510;28;20221;-88
2021/09/21 07:01:25;;;;;;;10.10;9.10;;;;;;;14.34;76.65;96483.63;5055238;28;20228;-88
2021/09/21 07:03:53;;;;;;;13.33;9.37;;;;;;;14.40;76.45;96482.94;5055596;28;20221;-88
2021/09/21 07:06:20;;;;;;;10.60;9.60;;;;;;;14.41;76.03;96487.97;5054927;28;20257;-88
2021/09/21 07:08:46;;;;;;;9.83;8.73;;;;;;;14.54;75.46;96473.56;5055230;28;20756;-88
2021/09/21 07:11:13;;;;;;;10.17;9.10;;;;;;;14.56;75.08;96479.38;5055617;28;20209;-87
2021/09/21 07:13:42;;;;;;;13.57;10.83;;;;;;;14.60;75.49;96478.84;5055622;28;20205;-88
2021/09/21 07:16:09;;;;;;;13.83;10.47;;;;;;;14.69;75.21;96471.78;5056072;28;20209;-88
2021/09/21 07:18:37;;;;;;;11.13;10.03;;;;;;;14.71;74.95;96473.19;5055857;28;20201;-86
2021/09/21 07:21:05;;;;;;;9.80;8.90;;;;;;;14.75;74.86;96477.06;5055211;28;20738;-88
2021/09/21 07:23:31;;;;;;;9.97;9.07;;;;;;;14.86;74.96;96484.34;5056165;28;20208;-88
2021/09/21 07:25:58;;;;;;;10.63;9.63;;;;;;;14.91;73.77;96483.00;5055599;28;20691;-87
2021/09/21 07:28:24;;;;;;;12.80;10.03;;;;;;;14.94;74.59;96490.44;5055463;28;20213;-86
2021/09/21 07:30:51;;;;;;;12.93;9.50;;;;;;;14.92;74.42;96495.00;5055692;28;20205;-88
2021/09/21 07:33:18;;;;;;;10.63;9.53;;;;;;;14.94;73.88;96490.44;5054813;28;20643;-88
2021/09/21 07:35:46;;;;;;;9.97;9.07;;;;;;;14.99;72.90;96496.69;5053788;28;20224;-88
2021/09/21 07:38:13;;;;;;;10.27;9.23;;;;;;;15.06;72.47;96492.38;5054817;28;20253;-88
2021/09/21 07:40:40;;;;;;;11.37;9.07;;;;;;;14.98;72.21;96492.50;5054160;28;20209;-87
2021/09/21 07:43:07;;;;;;;9.67;8.77;;;;;;;15.05;71.97;96498.53;5054287;28;20284;-88
2021/09/21 07:45:35;;;;;;;11.17;9.73;;;;;;;15.04;72.37;96501.31;5054239;28;20268;-86
2021/09/21 07:48:02;;;;;;;10.47;9.33;;;;;;;15.05;72.04;96505.53;5054681;28;20193;-85
2021/09/21 07:50:29;;;;;;;10.70;9.70;;;;;;;15.07;72.29;96506.16;5054299;28;20829;-87
2021/09/21 07:52:57;;;;;;;11.27;10.13;;;;;;;14.98;72.30;96509.84;5054514;28;20221;-88
2021/09/21 07:55:24;;;;;;;12.80;9.07;;;;;;;15.00;72.48;96516.47;5053737;28;20201;-88
2021/09/21 07:57:51;;;;;;;10.43;9.23;;;;;;;15.07;72.59;96514.72;5053942;28;20201;-87
2021/09/21 08:00:20;;;;;;;9.73;8.93;;;;;;;15.07;72.92;96521.72;5054353;28;20715;-87
2021/09/21 08:02:49;;;;;;;13.23;9.37;;;;;;;15.16;72.53;96528.41;5053901;28;20225;-86
2021/09/21 08:05:16;;;;;;;10.70;9.30;;;;;;;15.18;71.91;96535.03;5053312;28;20573;-85
2021/09/21 08:07:42;;;;;;;10.60;8.93;;;;;;;15.26;71.69;96546.28;5053333;28;20233;-85
2021/09/21 08:10:14;;;;;;;9.23;8.40;;;;;;;15.33;71.56;96549.78;5053306;28;20292;-88
2021/09/21 08:12:41;;;;;;;9.70;8.70;;;;;;;15.38;70.73;96556.03;5053150;28;20236;-86
2021/09/21 08:15:09;;;;;;;10.80;9.73;;;;;;;15.29;68.02;96556.31;5052761;28;20202;-86
2021/09/21 08:17:36;;;;;;;12.30;9.57;;;;;;;15.19;67.32;96554.00;5053114;28;20288;-87
2021/09/21 08:20:05;;;;;;;10.57;9.47;;;;;;;15.25;67.90;96555.84;5053107;28;20204;-88
2021/09/21 08:22:31;;;;;;;11.23;10.13;;;;;;;15.25;67.77;96557.66;5052943;28;20229;-87
2021/09/21 08:25:00;;;;;;;11.83;10.10;;;;;;;15.27;68.88;96560.88;5052757;28;20308;-86
2021/09/21 08:27:28;;;;;;;12.27;11.07;;;;;;;15.27;68.89;96560.88;5052736;28;20208;-87
2021/09/21 08:29:55;;;;;;;12.63;11.43;;;;;;;15.25;68.95;96562.84;5053016;28;20255;-87
2021/09/21 08:32:24;;;;;;;12.17;10.93;;;;;;;15.24;69.74;96561.22;5053729;28;20732;-87
2021/09/21 08:34:50;;;;;;;12.10;10.83;;;;;;;15.32;69.93;96563.72;5053229;28;20352;-86
2021/09/21 08:37:17;;;;;;;17.30;11.15;;;;;;;15.39;69.90;96564.63;5052502;28;20193;-87
2021/09/21 08:39:44;;;;;;;11.35;10.25;;;;;;;15.48;69.90;96571.28;5052998;28;20189;-86
2021/09/21 08:42:12;;;;;;;12.10;10.67;;;;;;;15.46;69.21;96578.47;5052841;28;20221;-86
2021/09/21 08:44:40;;;;;;;12.20;10.88;;;;;;;15.56;68.83;96575.63;5052695;28;20222;-88
2021/09/21 08:47:07;;;;;;;12.43;11.23;;;;;;;15.50;68.01;96572.72;5052182;28;20665;-86
2021/09/21 08:49:34;;;;;;;12.07;10.90;;;;;;;15.47;66.11;96570.50;5052763;28;20194;-85
2021/09/21 08:52:00;;;;;;;12.07;10.87;;;;;;;15.44;66.97;96578.63;5053270;28;20236;-87
2021/09/21 08:54:27;;;;;;;11.47;10.20;;;;;;;15.44;65.74;96583.03;5053107;28;20672;-87
2021/09/21 08:56:54;;;;;;;10.48;9.50;;;;;;;15.50;65.40;96582.31;5053183;28;20571;-88
2021/09/21 08:59:29;;;;;;;10.70;9.60;;;;;;;15.45;63.60;96574.25;5053170;28;20260;-88
2021/09/21 09:01:57;;;;;;;9.82;8.93;;;;;;;15.57;64.99;96588.41;5053682;28;20708;-86
2021/09/21 09:04:23;;;;;;;11.07;9.00;;;;;;;15.61;63.71;96579.25;5053299;28;20221;-87
2021/09/21 09:06:52;;;;;;;10.82;8.93;;;;;;;15.61;60.53;96583.66;5053699;28;20198;-88
2021/09/21 09:09:21;;;;;;;9.05;8.25;;;;;;;15.56;60.73;96579.03;5053913;28;20621;-88
2021/09/21 09:11:48;;;;;;;10.27;8.63;;;;;;;15.61;61.64;96575.84;5053638;28;20222;-87
2021/09/21 09:14:22;;;;;;;9.57;8.57;;;;;;;15.65;60.05;96577.09;5052670;28;20208;-86
2021/09/21 09:16:53;;;;;;;8.48;7.53;;;;;;;15.75;58.75;96581.03;5053575;28;20201;-88
2021/09/21 09:19:22;;;;;;;8.98;8.15;;;;;;;15.86;58.40;96584.91;5053642;28;20229;-87
2021/09/21 09:21:49;;;;;;;9.15;8.32;;;;;;;15.98;58.66;96587.81;5052807;28;20217;-88
2021/09/21 09:24:18;;;;;;;9.38;8.40;;;;;;;15.91;57.36;96587.78;5053230;28;20221;-88
2021/09/21 09:26:45;;;;;;;9.20;8.30;;;;;;;15.81;57.87;96595.03;5053303;28;20233;-86
2021/09/21 09:29:14;;;;;;;8.02;7.28;;;;;;;15.73;56.90;96597.78;5052891;28;20209;-87
2021/09/21 09:31:42;;;;;;;7.45;6.75;;;;;;;15.76;56.57;96597.41;5053232;28;20222;-86
2021/09/21 09:34:15;;;;;;;8.00;7.10;;;;;;;15.89;57.67;96602.75;5053047;28;20216;-86
2021/09/21 09:36:49;;;;;;;7.93;7.20;;;;;;;16.03;58.16;96598.47;5052665;28;20201;-87
2021/09/21 09:39:17;;;;;;;8.57;7.57;;;;;;;16.17;58.05;96590.59;5052761;28;20695;-87
2021/09/21 09:41:47;;;;;;;8.30;7.55;;;;;;;16.28;57.15;96601.50;5052779;28;20245;-86
2021/09/21 09:44:16;;;;;;;8.10;7.32;;;;;;;16.25;56.57;96592.28;5053077;28;20208;-86
2021/09/21 09:46:49;;;;;;;11.43;7.28;;;;;;;16.31;57.63;96598.53;5053194;28;20212;-86
2021/09/21 09:49:28;;;;;;;8.10;7.30;;;;;;;16.34;55.61;96603.34;5053290;28;20211;-87
2021/09/21 09:52:03;;;;;;;7.97;7.28;;;;;;;16.34;56.75;96608.56;5052799;28;20237;-88
2021/09/21 09:54:31;;;;;;;8.48;7.65;;;;;;;16.24;55.01;96601.06;5053114;28;20196;-87
2021/09/21 09:56:58;;;;;;;9.05;7.50;;;;;;;16.11;55.88;96598.34;5052756;28;20205;-88
2021/09/21 09:59:28;;;;;;;7.22;6.43;;;;;;;16.21;56.66;96604.84;5056024;28;20228;-88
2021/09/21 10:01:54;;;;;;;7.95;7.25;;;;;;;16.17;56.49;96601.00;5056250;28;20731;-88
2021/09/21 10:04:23;;;;;;;6.38;5.82;;;;;;;16.31;57.15;96595.94;5056515;28;20582;-88
2021/09/21 10:06:50;;;;;;;7.70;7.00;;;;;;;16.36;55.80;96598.75;5056792;28;20561;-88
2021/09/21 10:09:19;;;;;;;7.68;6.97;;;;;;;16.42;56.02;96603.22;5056276;28;20201;-88
2021/09/21 10:11:49;;;;;;;8.15;7.40;;;;;;;16.49;54.18;96611.88;5056620;28;20300;-87
2021/09/21 10:14:21;;;;;;;8.05;6.28;;;;;;;16.46;54.04;96605.25;5055780;28;20209;-88
2021/09/21 10:16:52;;;;;;;7.85;7.13;;;;;;;16.40;53.98;96600.00;5055381;28;20201;-86
2021/09/21 10:19:20;;;;;;;7.57;6.53;;;;;;;16.45;55.29;96600.25;5055605;28;20561;-87
2021/09/21 10:21:48;;;;;;;7.93;7.07;;;;;;;16.53;53.85;96595.72;5055311;28;20228;-87
2021/09/21 10:24:16;;;;;;;8.27;7.47;;;;;;;16.49;53.21;96596.28;5054597;28;20707;-86
2021/09/21 10:26:45;;;;;;;8.82;6.97;;;;;;;16.43;55.03;96607.41;5055284;28;20202;-87
2021/09/21 10:29:14;;;;;;;7.63;6.88;;;;;;;16.50;52.76;96600.50;5055051;28;20232;-85
2021/09/21 10:31:41;;;;;;;7.65;6.78;;;;;;;16.56;52.54;96597.13;5055315;28;20578;-89
2021/09/21 10:34:16;;;;;;;7.65;6.78;;;;;;;16.50;53.86;96600.50;5075387;23;20236;-87
2021/09/21 10:36:48;;;;;;;7.57;6.82;;;;;;;16.44;53.84;96596.03;5053424;28;20204;-87
2021/09/21 10:39:17;;;;;;;7.65;6.93;;;;;;;16.37;54.41;96598.56;5053655;28;20206;-86
2021/09/21 10:41:50;;;;;;;7.10;6.30;;;;;;;16.58;55.27;96603.75;5053464;28;20209;-86
2021/09/21 10:44:17;;;;;;;7.32;6.63;;;;;;;16.81;55.17;96603.53;5052828;28;20256;-86
2021/09/21 10:46:47;;;;;;;7.30;6.65;;;;;;;16.83;53.01;96605.94;5053168;28;20220;-87
2021/09/21 10:49:23;;;;;;;7.40;6.65;;;;;;;16.93;54.26;96604.59;5052928;28;20202;-87
2021/09/21 10:51:50;;;;;;;7.47;6.78;;;;;;;16.99;54.82;96607.44;5052513;28;20197;-87
2021/09/21 10:54:16;;;;;;;8.52;7.68;;;;;;;16.96;53.06;96602.63;5052617;28;20465;-87
2021/09/21 10:56:43;;;;;;;8.52;7.63;;;;;;;16.92;54.00;96608.22;5053117;28;20224;-88
2021/09/21 10:59:18;;;;;;;9.05;8.25;;;;;;;17.10;53.00;96606.94;5052422;28;20253;-87
2021/09/21 11:01:49;;;;;;;9.60;7.55;;;;;;;17.27;53.47;96618.63;5052689;28;20205;-87
2021/09/21 11:04:16;;;;;;;8.32;7.60;;;;;;;17.36;53.40;96607.03;5052243;28;20738;-87
2021/09/21 11:06:46;;;;;;;8.60;7.90;;;;;;;17.31;52.07;96611.25;5052635;28;20221;-87
2021/09/21 11:09:12;;;;;;;10.40;8.02;;;;;;;17.35;52.29;96612.44;5051897;28;20287;-87
2021/09/21 11:11:39;;;;;;;8.02;7.28;;;;;;;17.31;53.05;96612.03;5052593;28;20808;-87
2021/09/21 11:14:06;;;;;;;7.57;6.88;;;;;;;17.37;53.07;96610.44;5052426;28;20225;-88
2021/09/21 11:16:34;;;;;;;8.38;6.97;;;;;;;17.30;52.44;96607.03;5052760;28;20208;-86
2021/09/21 11:19:05;;;;;;;7.00;6.40;;;;;;;17.41;53.44;96617.69;5053085;28;20201;-86
2021/09/21 11:21:31;;;;;;;7.93;7.13;;;;;;;17.50;53.12;96610.53;5052858;28;20217;-87
2021/09/21 11:24:06;;;;;;;7.82;7.00;;;;;;;17.51;52.89;96609.53;5052628;28;20226;-86
2021/09/21 11:26:33;;;;;;;7.32;6.72;;;;;;;17.52;53.18;96608.50;5052258;28;20229;-87
2021/09/21 11:28:59;;;;;;;8.02;7.22;;;;;;;17.47;52.96;96605.69;5052061;28;20209;-86
2021/09/21 11:31:26;;;;;;;7.78;7.00;;;;;;;17.64;53.25;96604.38;5052325;28;20252;-86
2021/09/21 11:33:54;;;;;;;7.25;6.65;;;;;;;17.80;51.99;96606.63;5051814;28;20298;-86
2021/09/21 11:36:21;;;;;;;7.53;6.82;;;;;;;17.93;51.70;96608.47;5052189;28;20233;-88
2021/09/21 11:38:49;;;;;;;7.03;6.43;;;;;;;17.87;52.66;96601.44;5052126;28;20198;-88
2021/09/21 11:41:18;;;;;;;8.55;7.15;;;;;;;17.84;51.07;96605.25;5052731;28;20201;-89